sensor_id;sensor_type;location;lat;lon;timestamp;pressure;altitude;pressure_sealevel;temperature;humidity
69318;BME280;56457;52.190;4.440;2023-05-02T00:00:46;102270.75;;;10.84;100.00
69318;BME280;56457;52.190;4.440;2023-05-02T00:01:46;102260.13;;;10.75;100.00
69318;BME280;56457;52.190;4.440;2023-05-02T00:02:47;102268.91;;;10.77;100.00
69318;BME280;56457;52.190;4.440;2023-05-02T00:03:47;102269.75;;;10.74;100.00
69318;BME280;56457;52.190;4.440;2023-05-02T00:04:48;102276.78;;;10.75;100.00
69318;BME280;56457;52.190;4.440;2023-05-02T00:05:48;102274.16;;;10.78;100.00
69318;BME280;56457;52.190;4.440;2023-05-02T00:06:50;102272.38;;;10.74;100.00
69318;BME280;56457;52.190;4.440;2023-05-02T00:07:50;102276.00;;;10.83;100.00
69318;BME280;56457;52.190;4.440;2023-05-02T00:10:38;102269.78;;;10.76;100.00
69318;BME280;56457;52.190;4.440;2023-05-02T00:11:38;102280.19;;;10.71;100.00
69318;BME280;56457;52.190;4.440;2023-05-02T00:12:38;102279.31;;;10.69;100.00
69318;BME280;56457;52.190;4.440;2023-05-02T00:13:39;102275.81;;;10.70;100.00
69318;BME280;56457;52.190;4.440;2023-05-02T00:14:40;102281.06;;;10.70;100.00
69318;BME280;56457;52.190;4.440;2023-05-02T00:15:40;102278.44;;;10.70;100.00
69318;BME280;56457;52.190;4.440;2023-05-02T00:16:40;102279.34;;;10.74;100.00
69318;BME280;56457;52.190;4.440;2023-05-02T00:17:41;102274.88;;;10.67;100.00
69318;BME280;56457;52.190;4.440;2023-05-02T00:18:41;102280.13;;;10.67;100.00
69318;BME280;56457;52.190;4.440;2023-05-02T00:19:41;102273.09;;;10.64;100.00
69318;BME280;56457;52.190;4.440;2023-05-02T00:20:41;102281.84;;;10.63;100.00
69318;BME280;56457;52.190;4.440;2023-05-02T00:21:42;102287.13;;;10.66;100.00
69318;BME280;56457;52.190;4.440;2023-05-02T00:22:42;102288.09;;;10.73;100.00
69318;BME280;56457;52.190;4.440;2023-05-02T00:23:42;102284.66;;;10.77;100.00
69318;BME280;56457;52.190;4.440;2023-05-02T00:24:43;102279.44;;;10.80;100.00
69318;BME280;56457;52.190;4.440;2023-05-02T00:25:44;102285.56;;;10.81;100.00
69318;BME280;56457;52.190;4.440;2023-05-02T00:26:44;102283.97;;;10.90;100.00
69318;BME280;56457;52.190;4.440;2023-05-02T00:27:45;102283.94;;;10.89;100.00
69318;BME280;56457;52.190;4.440;2023-05-02T00:28:45;102283.09;;;10.90;100.00
69318;BME280;56457;52.190;4.440;2023-05-02T00:29:46;102276.06;;;10.89;100.00
69318;BME280;56457;52.190;4.440;2023-05-02T00:30:47;102277.81;;;10.88;100.00
69318;BME280;56457;52.190;4.440;2023-05-02T00:31:47;102273.28;;;10.76;100.00
69318;BME280;56457;52.190;4.440;2023-05-02T00:32:47;102281.00;;;10.67;100.00
69318;BME280;56457;52.190;4.440;2023-05-02T00:33:48;102278.25;;;10.58;100.00
69318;BME280;56457;52.190;4.440;2023-05-02T00:34:48;102283.44;;;10.55;100.00
69318;BME280;56457;52.190;4.440;2023-05-02T00:35:48;102288.75;;;10.58;100.00
69318;BME280;56457;52.190;4.440;2023-05-02T00:36:49;102286.03;;;10.50;100.00
69318;BME280;56457;52.190;4.440;2023-05-02T00:37:50;102295.66;;;10.53;100.00
69318;BME280;56457;52.190;4.440;2023-05-02T00:38:50;102287.78;;;10.51;100.00
69318;BME280;56457;52.190;4.440;2023-05-02T00:39:50;102292.06;;;10.46;100.00
69318;BME280;56457;52.190;4.440;2023-05-02T00:40:50;102285.03;;;10.44;100.00
69318;BME280;56457;52.190;4.440;2023-05-02T00:41:58;102290.31;;;10.47;100.00
69318;BME280;56457;52.190;4.440;2023-05-02T00:42:58;102293.81;;;10.46;100.00
69318;BME280;56457;52.190;4.440;2023-05-02T00:43:59;102286.81;;;10.45;100.00
69318;BME280;56457;52.190;4.440;2023-05-02T00:44:59;102288.56;;;10.46;100.00
69318;BME280;56457;52.190;4.440;2023-05-02T00:46:00;102281.66;;;10.51;100.00
69318;BME280;56457;52.190;4.440;2023-05-02T00:47:00;102276.31;;;10.46;100.00
69318;BME280;56457;52.190;4.440;2023-05-02T00:48:00;102276.31;;;10.46;100.00
69318;BME280;56457;52.190;4.440;2023-05-02T00:49:01;102282.47;;;10.48;100.00
69318;BME280;56457;52.190;4.440;2023-05-02T00:50:01;102281.56;;;10.45;100.00
69318;BME280;56457;52.190;4.440;2023-05-02T00:51:04;102285.03;;;10.44;100.00
69318;BME280;56457;52.190;4.440;2023-05-02T00:52:05;102282.44;;;10.45;100.00
69318;BME280;56457;52.190;4.440;2023-05-02T00:53:07;102281.53;;;10.43;100.00
69318;BME280;56457;52.190;4.440;2023-05-02T00:54:07;102278.06;;;10.44;100.00
69318;BME280;56457;52.190;4.440;2023-05-02T00:55:08;102287.69;;;10.45;100.00
69318;BME280;56457;52.190;4.440;2023-05-02T00:56:08;102286.84;;;10.48;100.00
69318;BME280;56457;52.190;4.440;2023-05-02T00:57:08;102292.06;;;10.45;100.00
69318;BME280;56457;52.190;4.440;2023-05-02T00:58:12;102286.81;;;10.46;100.00
69318;BME280;56457;52.190;4.440;2023-05-02T00:59:13;102299.00;;;10.43;100.00
69318;BME280;56457;52.190;4.440;2023-05-02T01:00:14;102294.69;;;10.46;100.00
69318;BME280;56457;52.190;4.440;2023-05-02T01:02:39;102295.56;;;10.45;100.00
69318;BME280;56457;52.190;4.440;2023-05-02T01:03:52;102293.75;;;10.43;100.00
69318;BME280;56457;52.190;4.440;2023-05-02T01:06:19;102305.19;;;10.46;100.00
69318;BME280;56457;52.190;4.440;2023-05-02T01:08:38;102298.91;;;10.37;100.00
69318;BME280;56457;52.190;4.440;2023-05-02T01:10:51;102296.25;;;10.35;100.00
69318;BME280;56457;52.190;4.440;2023-05-02T01:12:00;102289.31;;;10.39;100.00
69318;BME280;56457;52.190;4.440;2023-05-02T01:13:20;102291.09;;;10.40;100.00
69318;BME280;56457;52.190;4.440;2023-05-02T01:14:21;102282.38;;;10.42;100.00
69318;BME280;56457;52.190;4.440;2023-05-02T01:15:22;102295.50;;;10.42;100.00
69318;BME280;56457;52.190;4.440;2023-05-02T01:16:23;102293.63;;;10.35;100.00
69318;BME280;56457;52.190;4.440;2023-05-02T01:17:28;102298.06;;;10.38;100.00
69318;BME280;56457;52.190;4.440;2023-05-02T01:18:31;102295.47;;;10.39;100.00
69318;BME280;56457;52.190;4.440;2023-05-02T01:19:34;102298.91;;;10.37;100.00
69318;BME280;56457;52.190;4.440;2023-05-02T01:20:37;102293.63;;;10.34;100.00
69318;BME280;56457;52.190;4.440;2023-05-02T01:21:40;102295.34;;;10.32;100.00
69318;BME280;56457;52.190;4.440;2023-05-02T01:22:41;102301.47;;;10.32;100.00
69318;BME280;56457;52.190;4.440;2023-05-02T01:25:00;102303.38;;;10.42;100.00
69318;BME280;56457;52.190;4.440;2023-05-02T01:26:17;102303.41;;;10.44;100.00
69318;BME280;56457;52.190;4.440;2023-05-02T01:29:55;102300.72;;;10.39;100.00
69318;BME280;56457;52.190;4.440;2023-05-02T01:30:56;102301.47;;;10.32;100.00
69318;BME280;56457;52.190;4.440;2023-05-02T01:31:57;102294.38;;;10.28;100.00
69318;BME280;56457;52.190;4.440;2023-05-02T01:32:59;102289.06;;;10.23;100.00
69318;BME280;56457;52.190;4.440;2023-05-02T01:34:01;102296.94;;;10.23;100.00
69318;BME280;56457;52.190;4.440;2023-05-02T01:35:03;102296.94;;;10.23;100.00
69318;BME280;56457;52.190;4.440;2023-05-02T01:36:04;102296.94;;;10.23;100.00
69318;BME280;56457;52.190;4.440;2023-05-02T01:37:06;102295.25;;;10.27;100.00
69318;BME280;56457;52.190;4.440;2023-05-02T01:38:11;102291.84;;;10.31;100.00
69318;BME280;56457;52.190;4.440;2023-05-02T01:39:14;102294.41;;;10.30;100.00
69318;BME280;56457;52.190;4.440;2023-05-02T01:40:18;102297.88;;;10.26;100.00
69318;BME280;56457;52.190;4.440;2023-05-02T01:41:19;102291.75;;;10.27;100.00
69318;BME280;56457;52.190;4.440;2023-05-02T01:42:20;102300.59;;;10.32;100.00
69318;BME280;56457;52.190;4.440;2023-05-02T01:43:22;102302.25;;;10.27;100.00
69318;BME280;56457;52.190;4.440;2023-05-02T01:44:23;102291.78;;;10.28;100.00
69318;BME280;56457;52.190;4.440;2023-05-02T01:45:24;102299.59;;;10.25;100.00
69318;BME280;56457;52.190;4.440;2023-05-02T01:46:26;102294.31;;;10.23;100.00
69318;BME280;56457;52.190;4.440;2023-05-02T01:47:28;102301.38;;;10.28;100.00
69318;BME280;56457;52.190;4.440;2023-05-02T01:48:28;102305.75;;;10.29;100.00
69318;BME280;56457;52.190;4.440;2023-05-02T01:49:29;102306.63;;;10.28;100.00
69318;BME280;56457;52.190;4.440;2023-05-02T01:50:30;102297.97;;;10.33;100.00
69318;BME280;56457;52.190;4.440;2023-05-02T01:51:32;102301.28;;;10.23;100.00
69318;BME280;56457;52.190;4.440;2023-05-02T01:55:32;102309.03;;;10.17;100.00
69318;BME280;56457;52.190;4.440;2023-05-02T01:56:35;102303.78;;;10.18;100.00
69318;BME280;56457;52.190;4.440;2023-05-02T01:57:37;102315.22;;;10.20;100.00
69318;BME280;56457;52.190;4.440;2023-05-02T01:58:38;102318.72;;;10.19;100.00
69318;BME280;56457;52.190;4.440;2023-05-02T01:59:40;102313.47;;;10.21;100.00
69318;BME280;56457;52.190;4.440;2023-05-02T02:00:42;102315.41;;;10.30;100.00
69318;BME280;56457;52.190;4.440;2023-05-02T02:01:44;102312.75;;;10.28;100.00
69318;BME280;56457;52.190;4.440;2023-05-02T02:02:45;102321.41;;;10.24;100.00
69318;BME280;56457;52.190;4.440;2023-05-02T02:03:46;102324.03;;;10.24;100.00
69318;BME280;56457;52.190;4.440;2023-05-02T02:04:47;102330.94;;;10.19;100.00
69318;BME280;56457;52.190;4.440;2023-05-02T02:05:47;102328.22;;;10.14;100.00
69318;BME280;56457;52.190;4.440;2023-05-02T02:06:51;102330.00;;;10.15;100.00
69318;BME280;56457;52.190;4.440;2023-05-02T02:07:53;102322.16;;;10.18;100.00
69318;BME280;56457;52.190;4.440;2023-05-02T02:08:53;102337.97;;;10.21;100.00
69318;BME280;56457;52.190;4.440;2023-05-02T02:09:54;102332.72;;;10.21;100.00
69318;BME280;56457;52.190;4.440;2023-05-02T02:10:56;102332.66;;;10.18;100.00
69318;BME280;56457;52.190;4.440;2023-05-02T02:12:05;102337.97;;;10.21;100.00
69318;BME280;56457;52.190;4.440;2023-05-02T02:13:15;102337.09;;;10.22;100.00
69318;BME280;56457;52.190;4.440;2023-05-02T02:14:17;102333.59;;;10.22;100.00
69318;BME280;56457;52.190;4.440;2023-05-02T02:15:20;102337.91;;;10.18;100.00
69318;BME280;56457;52.190;4.440;2023-05-02T02:16:23;102331.75;;;10.16;100.00
69318;BME280;56457;52.190;4.440;2023-05-02T02:17:25;102336.19;;;10.19;100.00
69318;BME280;56457;52.190;4.440;2023-05-02T02:18:27;102339.63;;;10.18;100.00
69318;BME280;56457;52.190;4.440;2023-05-02T02:19:28;102349.34;;;10.22;100.00
69318;BME280;56457;52.190;4.440;2023-05-02T02:20:29;102340.47;;;10.14;100.00
69318;BME280;56457;52.190;4.440;2023-05-02T02:21:31;102345.66;;;10.12;100.00
69318;BME280;56457;52.190;4.440;2023-05-02T02:22:33;102344.78;;;10.12;100.00
69318;BME280;56457;52.190;4.440;2023-05-02T02:23:36;102344.72;;;10.09;100.00
69318;BME280;56457;52.190;4.440;2023-05-02T02:24:37;102336.88;;;10.10;100.00
69318;BME280;56457;52.190;4.440;2023-05-02T02:25:38;102346.38;;;10.02;100.00
69318;BME280;56457;52.190;4.440;2023-05-02T02:26:39;102344.59;;;10.01;100.00
69318;BME280;56457;52.190;4.440;2023-05-02T02:27:40;102347.22;;;10.01;100.00
69318;BME280;56457;52.190;4.440;2023-05-02T02:28:40;102355.09;;;10.03;100.00
69318;BME280;56457;52.190;4.440;2023-05-02T02:29:41;102341.97;;;10.01;100.00
69318;BME280;56457;52.190;4.440;2023-05-02T02:30:42;102342.84;;;10.00;100.00
69318;BME280;56457;52.190;4.440;2023-05-02T02:31:42;102345.47;;;10.02;100.00
69318;BME280;56457;52.190;4.440;2023-05-02T02:32:43;102347.25;;;10.03;100.00
69318;BME280;56457;52.190;4.440;2023-05-02T02:33:43;102346.47;;;10.08;100.00
69318;BME280;56457;52.190;4.440;2023-05-02T02:34:43;102344.66;;;10.06;100.00
69318;BME280;56457;52.190;4.440;2023-05-02T02:35:47;102346.38;;;10.04;100.00
69318;BME280;56457;52.190;4.440;2023-05-02T02:36:54;102349.84;;;10.01;100.00
69318;BME280;56457;52.190;4.440;2023-05-02T02:37:58;102351.75;;;10.10;100.00
69318;BME280;56457;52.190;4.440;2023-05-02T02:40:15;102346.47;;;10.08;100.00
69318;BME280;56457;52.190;4.440;2023-05-02T02:41:20;102345.53;;;10.05;100.00
69318;BME280;56457;52.190;4.440;2023-05-02T02:43:32;102353.31;;;10.00;100.00
69318;BME280;56457;52.190;4.440;2023-05-02T02:44:46;102355.00;;;9.96;100.00
69318;BME280;56457;52.190;4.440;2023-05-02T02:46:01;102354.16;;;9.99;100.00
69318;BME280;56457;52.190;4.440;2023-05-02T02:47:10;102364.63;;;9.99;100.00
69318;BME280;56457;52.190;4.440;2023-05-02T02:50:45;102360.34;;;10.03;100.00
69318;BME280;56457;52.190;4.440;2023-05-02T02:51:52;102368.16;;;9.99;100.00
69318;BME280;56457;52.190;4.440;2023-05-02T02:53:04;102364.63;;;9.99;100.00
69318;BME280;56457;52.190;4.440;2023-05-02T02:55:12;102361.22;;;10.03;100.00
69318;BME280;56457;52.190;4.440;2023-05-02T02:56:18;102366.63;;;10.12;100.00
69318;BME280;56457;52.190;4.440;2023-05-02T02:57:23;102373.56;;;10.09;100.00
69318;BME280;56457;52.190;4.440;2023-05-02T02:59:54;102377.97;;;10.11;100.00
69318;BME280;56457;52.190;4.440;2023-05-02T03:00:58;102375.31;;;10.08;100.00
69318;BME280;56457;52.190;4.440;2023-05-02T03:02:06;102378.69;;;10.01;100.00
69318;BME280;56457;52.190;4.440;2023-05-02T03:03:07;102377.75;;;9.99;100.00
69318;BME280;56457;52.190;4.440;2023-05-02T03:04:08;102380.50;;;10.05;100.00
69318;BME280;56457;52.190;4.440;2023-05-02T03:05:10;102379.56;;;10.02;100.00
69318;BME280;56457;52.190;4.440;2023-05-02T03:06:10;102384.84;;;10.05;100.00
69318;BME280;56457;52.190;4.440;2023-05-02T03:07:11;102380.47;;;10.04;100.00
69318;BME280;56457;52.190;4.440;2023-05-02T03:08:11;102375.31;;;10.08;100.00
69318;BME280;56457;52.190;4.440;2023-05-02T03:09:15;102383.16;;;10.07;100.00
69318;BME280;56457;52.190;4.440;2023-05-02T03:10:18;102380.47;;;10.04;100.00
69318;BME280;56457;52.190;4.440;2023-05-02T03:11:20;102385.66;;;10.01;100.00
69318;BME280;56457;52.190;4.440;2023-05-02T03:12:21;102386.44;;;9.96;100.00
69318;BME280;56457;52.190;4.440;2023-05-02T03:13:21;102391.69;;;9.96;100.00
69318;BME280;56457;52.190;4.440;2023-05-02T03:14:22;102394.34;;;9.98;100.00
69318;BME280;56457;52.190;4.440;2023-05-02T03:15:39;102387.25;;;9.92;100.00
69318;BME280;56457;52.190;4.440;2023-05-02T03:16:44;102388.97;;;9.92;100.00
69318;BME280;56457;52.190;4.440;2023-05-02T03:17:45;102394.22;;;9.92;100.00
69318;BME280;56457;52.190;4.440;2023-05-02T03:18:45;102382.72;;;9.85;100.00
69318;BME280;56457;52.190;4.440;2023-05-02T03:19:45;102386.25;;;9.86;100.00
69318;BME280;56457;52.190;4.440;2023-05-02T03:20:46;102387.16;;;9.88;100.00
69318;BME280;56457;52.190;4.440;2023-05-02T03:21:46;102388.00;;;9.87;100.00
69318;BME280;56457;52.190;4.440;2023-05-02T03:22:47;102379.22;;;9.85;100.00
69318;BME280;56457;52.190;4.440;2023-05-02T03:23:47;102390.63;;;9.87;100.00
69318;BME280;56457;52.190;4.440;2023-05-02T03:24:47;102387.13;;;9.86;100.00
69318;BME280;56457;52.190;4.440;2023-05-02T03:25:47;102387.13;;;9.86;100.00
69318;BME280;56457;52.190;4.440;2023-05-02T03:26:48;102388.84;;;9.86;100.00
69318;BME280;56457;52.190;4.440;2023-05-02T03:27:48;102389.78;;;9.88;100.00
69318;BME280;56457;52.190;4.440;2023-05-02T03:28:48;102393.19;;;9.82;100.00
69318;BME280;56457;52.190;4.440;2023-05-02T03:29:50;102400.22;;;9.86;100.00
69318;BME280;56457;52.190;4.440;2023-05-02T03:30:50;102397.69;;;9.91;100.00
69318;BME280;56457;52.190;4.440;2023-05-02T03:31:51;102401.16;;;9.88;100.00
69318;BME280;56457;52.190;4.440;2023-05-02T03:32:51;102400.31;;;9.91;100.00
69318;BME280;56457;52.190;4.440;2023-05-02T03:33:51;102402.09;;;9.93;100.00
69318;BME280;56457;52.190;4.440;2023-05-02T03:34:52;102401.28;;;9.94;100.00
69318;BME280;56457;52.190;4.440;2023-05-02T03:35:57;102400.31;;;9.89;100.00
69318;BME280;56457;52.190;4.440;2023-05-02T03:36:57;102400.31;;;9.91;100.00
69318;BME280;56457;52.190;4.440;2023-05-02T03:37:57;102397.56;;;9.83;100.00
69318;BME280;56457;52.190;4.440;2023-05-02T03:38:58;102405.44;;;9.85;100.00
69318;BME280;56457;52.190;4.440;2023-05-02T03:39:58;102402.81;;;9.85;100.00
69318;BME280;56457;52.190;4.440;2023-05-02T03:40:58;102403.59;;;9.81;100.00
69318;BME280;56457;52.190;4.440;2023-05-02T03:41:58;102405.41;;;9.83;100.00
69318;BME280;56457;52.190;4.440;2023-05-02T03:42:59;102405.53;;;9.88;100.00
69318;BME280;56457;52.190;4.440;2023-05-02T03:44:00;102404.50;;;9.81;100.00
69318;BME280;56457;52.190;4.440;2023-05-02T03:45:00;102411.59;;;9.87;100.00
69318;BME280;56457;52.190;4.440;2023-05-02T03:46:04;102407.22;;;9.86;100.00
69318;BME280;56457;52.190;4.440;2023-05-02T03:47:06;102412.41;;;9.83;100.00
69318;BME280;56457;52.190;4.440;2023-05-02T03:48:07;102414.19;;;9.85;100.00
69318;BME280;56457;52.190;4.440;2023-05-02T03:49:07;102423.69;;;9.80;100.00
69318;BME280;56457;52.190;4.440;2023-05-02T03:50:07;102416.63;;;9.76;100.00
69318;BME280;56457;52.190;4.440;2023-05-02T03:51:08;102428.03;;;9.78;100.00
69318;BME280;56457;52.190;4.440;2023-05-02T03:52:08;102427.16;;;9.78;100.00
69318;BME280;56457;52.190;4.440;2023-05-02T03:53:09;102426.25;;;9.77;100.00
69318;BME280;56457;52.190;4.440;2023-05-02T03:54:09;102429.78;;;9.78;100.00
69318;BME280;56457;52.190;4.440;2023-05-02T03:55:09;102424.41;;;9.73;100.00
69318;BME280;56457;52.190;4.440;2023-05-02T03:56:10;102427.88;;;9.70;100.00
69318;BME280;56457;52.190;4.440;2023-05-02T03:57:10;102422.50;;;9.64;100.00
69318;BME280;56457;52.190;4.440;2023-05-02T03:58:11;102427.00;;;9.70;100.00
69318;BME280;56457;52.190;4.440;2023-05-02T03:59:12;102427.78;;;9.67;100.00
69318;BME280;56457;52.190;4.440;2023-05-02T04:00:13;102429.50;;;9.64;100.00
69318;BME280;56457;52.190;4.440;2023-05-02T04:01:13;102429.44;;;9.62;100.00
69318;BME280;56457;52.190;4.440;2023-05-02T04:02:14;102429.41;;;9.61;100.00
69318;BME280;56457;52.190;4.440;2023-05-02T04:03:15;102430.34;;;9.63;100.00
69318;BME280;56457;52.190;4.440;2023-05-02T04:04:15;102436.38;;;9.60;100.00
69318;BME280;56457;52.190;4.440;2023-05-02T04:05:15;102433.00;;;9.66;100.00
69318;BME280;56457;52.190;4.440;2023-05-02T04:06:16;102433.97;;;9.69;100.00
69318;BME280;56457;52.190;4.440;2023-05-02T04:07:16;102434.88;;;9.71;100.00
69318;BME280;56457;52.190;4.440;2023-05-02T04:08:17;102434.81;;;9.68;100.00
69318;BME280;56457;52.190;4.440;2023-05-02T04:09:17;102430.47;;;9.69;100.00
69318;BME280;56457;52.190;4.440;2023-05-02T04:10:22;102435.75;;;9.70;100.00
69318;BME280;56457;52.190;4.440;2023-05-02T04:11:22;102442.63;;;9.65;100.00
69318;BME280;56457;52.190;4.440;2023-05-02T04:12:23;102440.97;;;9.70;100.00
69318;BME280;56457;52.190;4.440;2023-05-02T04:13:23;102440.00;;;9.65;100.00
69318;BME280;56457;52.190;4.440;2023-05-02T04:14:23;102443.59;;;9.70;100.00
69318;BME280;56457;52.190;4.440;2023-05-02T04:15:24;102444.47;;;9.69;100.00
69318;BME280;56457;52.190;4.440;2023-05-02T04:16:24;102441.72;;;9.65;100.00
69318;BME280;56457;52.190;4.440;2023-05-02T04:17:24;102446.19;;;9.69;100.00
69318;BME280;56457;52.190;4.440;2023-05-02T04:18:25;102447.91;;;9.68;100.00
69318;BME280;56457;52.190;4.440;2023-05-02T04:19:25;102457.50;;;9.68;100.00
69318;BME280;56457;52.190;4.440;2023-05-02T04:20:26;102451.38;;;9.67;100.00
69318;BME280;56457;52.190;4.440;2023-05-02T04:21:26;102453.28;;;9.75;100.00
69318;BME280;56457;52.190;4.440;2023-05-02T04:22:26;102454.09;;;9.70;100.00
69318;BME280;56457;52.190;4.440;2023-05-02T04:23:27;102456.69;;;9.69;100.00
69318;BME280;56457;52.190;4.440;2023-05-02T04:24:27;102453.16;;;9.68;100.00
69318;BME280;56457;52.190;4.440;2023-05-02T04:25:27;102454.00;;;9.67;100.00
69318;BME280;56457;52.190;4.440;2023-05-02T04:26:28;102454.94;;;9.69;100.00
69318;BME280;56457;52.190;4.440;2023-05-02T04:27:28;102459.25;;;9.67;100.00
69318;BME280;56457;52.190;4.440;2023-05-02T04:28:29;102460.88;;;9.62;100.00
69318;BME280;56457;52.190;4.440;2023-05-02T04:29:29;102467.78;;;9.57;100.00
69318;BME280;56457;52.190;4.440;2023-05-02T04:30:29;102466.91;;;9.58;100.00
69318;BME280;56457;52.190;4.440;2023-05-02T04:31:30;102463.34;;;9.56;100.00
69318;BME280;56457;52.190;4.440;2023-05-02T04:32:31;102470.28;;;9.53;100.00
69318;BME280;56457;52.190;4.440;2023-05-02T04:33:31;102470.53;;;9.63;100.00
69318;BME280;56457;52.190;4.440;2023-05-02T04:34:32;102476.53;;;9.59;100.00
69318;BME280;56457;52.190;4.440;2023-05-02T04:35:32;102474.84;;;9.61;100.00
69318;BME280;56457;52.190;4.440;2023-05-02T04:36:32;102470.44;;;9.60;100.00
69318;BME280;56457;52.190;4.440;2023-05-02T04:37:33;102473.03;;;9.57;100.00
69318;BME280;56457;52.190;4.440;2023-05-02T04:38:33;102478.13;;;9.51;100.00
69318;BME280;56457;52.190;4.440;2023-05-02T04:39:34;102483.34;;;9.51;100.00
69318;BME280;56457;52.190;4.440;2023-05-02T04:40:34;102488.75;;;9.59;100.00
69318;BME280;56457;52.190;4.440;2023-05-02T04:41:35;102478.41;;;9.65;100.00
69318;BME280;56457;52.190;4.440;2023-05-02T04:42:35;102479.41;;;9.70;100.00
69318;BME280;56457;52.190;4.440;2023-05-02T04:43:35;102489.69;;;9.62;100.00
69318;BME280;56457;52.190;4.440;2023-05-02T04:44:36;102482.63;;;9.58;100.00
69318;BME280;56457;52.190;4.440;2023-05-02T04:45:36;102491.31;;;9.56;100.00
69318;BME280;56457;52.190;4.440;2023-05-02T04:46:36;102494.03;;;9.60;100.00
69318;BME280;56457;52.190;4.440;2023-05-02T04:47:36;102494.59;;;9.47;100.00
69318;BME280;56457;52.190;4.440;2023-05-02T04:48:37;102499.09;;;9.51;100.00
69318;BME280;56457;52.190;4.440;2023-05-02T04:49:41;102495.00;;;9.64;100.00
69318;BME280;56457;52.190;4.440;2023-05-02T04:50:43;102494.13;;;9.63;100.00
69318;BME280;56457;52.190;4.440;2023-05-02T04:51:44;102501.78;;;9.56;100.00
69318;BME280;56457;52.190;4.440;2023-05-02T04:52:44;102497.50;;;9.59;100.00
69318;BME280;56457;52.190;4.440;2023-05-02T04:53:44;102497.41;;;9.56;100.00
69318;BME280;56457;52.190;4.440;2023-05-02T04:54:45;102504.31;;;9.51;100.00
69318;BME280;56457;52.190;4.440;2023-05-02T04:55:45;102503.34;;;9.48;100.00
69318;BME280;56457;52.190;4.440;2023-05-02T04:56:45;102504.22;;;9.47;100.00
69318;BME280;56457;52.190;4.440;2023-05-02T04:57:46;102505.19;;;9.52;100.00
69318;BME280;56457;52.190;4.440;2023-05-02T04:58:46;102506.00;;;9.49;100.00
69318;BME280;56457;52.190;4.440;2023-05-02T04:59:47;102504.25;;;9.50;100.00
69318;BME280;56457;52.190;4.440;2023-05-02T05:00:47;102496.41;;;9.50;100.00
69318;BME280;56457;52.190;4.440;2023-05-02T05:01:47;102496.47;;;9.53;100.00
69318;BME280;56457;52.190;4.440;2023-05-02T05:02:48;102501.59;;;9.47;100.00
69318;BME280;56457;52.190;4.440;2023-05-02T05:03:48;102504.22;;;9.48;100.00
69318;BME280;56457;52.190;4.440;2023-05-02T05:04:48;102500.69;;;9.44;100.00
69318;BME280;56457;52.190;4.440;2023-05-02T05:05:48;102509.56;;;9.51;100.00
69318;BME280;56457;52.190;4.440;2023-05-02T05:06:49;102500.84;;;9.52;100.00
69318;BME280;56457;52.190;4.440;2023-05-02T05:07:49;102500.03;;;9.56;100.00
69318;BME280;56457;52.190;4.440;2023-05-02T05:08:50;102506.97;;;9.53;100.00
69318;BME280;56457;52.190;4.440;2023-05-02T05:09:50;102509.50;;;9.50;100.00
69318;BME280;56457;52.190;4.440;2023-05-02T05:10:51;102517.28;;;9.45;100.00
69318;BME280;56457;52.190;4.440;2023-05-02T05:11:51;102510.22;;;9.42;100.00
69318;BME280;56457;52.190;4.440;2023-05-02T05:12:51;102512.06;;;9.47;100.00
69318;BME280;56457;52.190;4.440;2023-05-02T05:13:52;102512.25;;;9.56;100.00
69318;BME280;56457;52.190;4.440;2023-05-02T05:14:52;102513.16;;;9.56;100.00
69318;BME280;56457;52.190;4.440;2023-05-02T05:15:52;102514.94;;;9.57;100.00
69318;BME280;56457;52.190;4.440;2023-05-02T05:16:53;102512.47;;;9.63;100.00
69318;BME280;56457;52.190;4.440;2023-05-02T05:17:53;102511.53;;;9.61;100.00
69318;BME280;56457;52.190;4.440;2023-05-02T05:18:54;102522.81;;;9.57;100.00
69318;BME280;56457;52.190;4.440;2023-05-02T05:19:54;102515.63;;;9.50;100.00
69318;BME280;56457;52.190;4.440;2023-05-02T05:20:54;102526.03;;;9.46;100.00
69318;BME280;56457;52.190;4.440;2023-05-02T05:21:55;102525.94;;;9.42;100.00
69318;BME280;56457;52.190;4.440;2023-05-02T05:22:55;102531.44;;;9.53;100.00
69318;BME280;56457;52.190;4.440;2023-05-02T05:23:56;102529.69;;;9.54;100.00
69318;BME280;56457;52.190;4.440;2023-05-02T05:24:56;102527.03;;;9.52;100.00
69318;BME280;56457;52.190;4.440;2023-05-02T05:25:56;102533.94;;;9.49;100.00
69318;BME280;56457;52.190;4.440;2023-05-02T05:26:57;102532.13;;;9.44;100.00
69318;BME280;56457;52.190;4.440;2023-05-02T05:27:58;102525.22;;;9.50;100.00
69318;BME280;56457;52.190;4.440;2023-05-02T05:28:58;102532.25;;;9.51;100.00
69318;BME280;56457;52.190;4.440;2023-05-02T05:29:59;102536.72;;;9.56;100.00
69318;BME280;56457;52.190;4.440;2023-05-02T05:31:03;102536.81;;;9.59;100.00
69318;BME280;56457;52.190;4.440;2023-05-02T05:32:04;102534.97;;;9.55;100.00
69318;BME280;56457;52.190;4.440;2023-05-02T05:33:05;102541.94;;;9.55;100.00
69318;BME280;56457;52.190;4.440;2023-05-02T05:34:05;102530.59;;;9.56;100.00
69318;BME280;56457;52.190;4.440;2023-05-02T05:35:05;102537.66;;;9.58;100.00
69318;BME280;56457;52.190;4.440;2023-05-02T05:36:06;102546.56;;;9.65;100.00
69318;BME280;56457;52.190;4.440;2023-05-02T05:37:07;102544.78;;;9.64;100.00
69318;BME280;56457;52.190;4.440;2023-05-02T05:38:07;102547.97;;;9.51;100.00
69318;BME280;56457;52.190;4.440;2023-05-02T05:39:07;102548.06;;;9.55;100.00
69318;BME280;56457;52.190;4.440;2023-05-02T05:40:08;102553.38;;;9.58;100.00
69318;BME280;56457;52.190;4.440;2023-05-02T05:41:08;102545.41;;;9.54;100.00